sensor_id;sensor_type;location;lat;lon;timestamp;pressure;altitude;pressure_sealevel;temperature;humidity
76074;BME280;64776;42.636;24.358;2023-05-07T00:01:24;90447.00;;;10.29;84.48
76074;BME280;64776;42.636;24.358;2023-05-07T00:04:25;90445.97;;;10.27;84.16
76074;BME280;64776;42.636;24.358;2023-05-07T00:07:27;90448.00;;;10.32;83.50
76074;BME280;64776;42.636;24.358;2023-05-07T00:10:28;90444.25;;;10.24;83.90
76074;BME280;64776;42.636;24.358;2023-05-07T00:13:29;90432.66;;;10.27;83.64
76074;BME280;64776;42.636;24.358;2023-05-07T00:16:30;90438.09;;;10.18;83.68
76074;BME280;64776;42.636;24.358;2023-05-07T00:19:30;90429.72;;;10.25;83.37
76074;BME280;64776;42.636;24.358;2023-05-07T00:22:33;90422.53;;;10.31;82.87
76074;BME280;64776;42.636;24.358;2023-05-07T00:25:33;90422.34;;;10.34;83.15
76074;BME280;64776;42.636;24.358;2023-05-07T00:28:34;90420.88;;;10.33;82.58
76074;BME280;64776;42.636;24.358;2023-05-07T00:31:35;90422.53;;;10.31;82.92
76074;BME280;64776;42.636;24.358;2023-05-07T00:34:36;90424.16;;;10.43;82.78
76074;BME280;64776;42.636;24.358;2023-05-07T00:37:38;90425.63;;;10.44;82.72
76074;BME280;64776;42.636;24.358;2023-05-07T00:40:39;90426.81;;;10.43;83.07
76074;BME280;64776;42.636;24.358;2023-05-07T00:43:40;90422.31;;;10.49;82.86
76074;BME280;64776;42.636;24.358;2023-05-07T00:46:40;90420.69;;;10.37;82.50
76074;BME280;64776;42.636;24.358;2023-05-07T00:49:42;90420.03;;;10.42;83.13
76074;BME280;64776;42.636;24.358;2023-05-07T00:52:45;90416.69;;;10.47;82.72
76074;BME280;64776;42.636;24.358;2023-05-07T00:55:46;90423.16;;;10.55;82.19
76074;BME280;64776;42.636;24.358;2023-05-07T00:58:47;90419.06;;;10.59;81.50
76074;BME280;64776;42.636;24.358;2023-05-07T01:01:48;90416.75;;;10.67;81.08
76074;BME280;64776;42.636;24.358;2023-05-07T01:04:48;90417.69;;;10.64;81.77
76074;BME280;64776;42.636;24.358;2023-05-07T01:07:51;90419.88;;;10.65;81.50
76074;BME280;64776;42.636;24.358;2023-05-07T01:10:54;90414.75;;;10.62;81.70
76074;BME280;64776;42.636;24.358;2023-05-07T01:13:56;90417.03;;;10.69;80.99
76074;BME280;64776;42.636;24.358;2023-05-07T01:16:58;90414.16;;;10.73;80.93
76074;BME280;64776;42.636;24.358;2023-05-07T01:19:59;90419.56;;;10.78;81.44
76074;BME280;64776;42.636;24.358;2023-05-07T01:23:03;90411.81;;;10.80;81.17
76074;BME280;64776;42.636;24.358;2023-05-07T01:26:04;90418.31;;;10.94;80.78
76074;BME280;64776;42.636;24.358;2023-05-07T01:29:05;90418.78;;;10.92;80.55
76074;BME280;64776;42.636;24.358;2023-05-07T01:32:06;90414.00;;;10.96;80.18
76074;BME280;64776;42.636;24.358;2023-05-07T01:35:11;90418.91;;;10.83;80.31
76074;BME280;64776;42.636;24.358;2023-05-07T01:38:14;90419.50;;;10.93;80.37
76074;BME280;64776;42.636;24.358;2023-05-07T01:41:15;90412.09;;;10.82;81.08
76074;BME280;64776;42.636;24.358;2023-05-07T01:44:17;90409.19;;;10.65;79.90
76074;BME280;64776;42.636;24.358;2023-05-07T01:47:19;90415.50;;;10.48;81.01
76074;BME280;64776;42.636;24.358;2023-05-07T01:50:20;90402.94;;;10.34;80.34
76074;BME280;64776;42.636;24.358;2023-05-07T01:53:23;90403.78;;;10.25;81.11
76074;BME280;64776;42.636;24.358;2023-05-07T01:56:24;90401.38;;;10.42;80.13
76074;BME280;64776;42.636;24.358;2023-05-07T01:59:25;90400.75;;;10.32;80.35
76074;BME280;64776;42.636;24.358;2023-05-07T02:02:26;90401.47;;;10.04;81.72
76074;BME280;64776;42.636;24.358;2023-05-07T02:05:27;90388.88;;;9.90;81.84
76074;BME280;64776;42.636;24.358;2023-05-07T02:08:29;90389.00;;;9.95;81.29
76074;BME280;64776;42.636;24.358;2023-05-07T02:11:30;90388.19;;;9.89;81.11
76074;BME280;64776;42.636;24.358;2023-05-07T02:14:30;90376.66;;;9.98;81.50
76074;BME280;64776;42.636;24.358;2023-05-07T02:17:33;90378.78;;;9.94;80.23
76074;BME280;64776;42.636;24.358;2023-05-07T02:20:34;90373.63;;;9.90;80.20
76074;BME280;64776;42.636;24.358;2023-05-07T02:23:37;90378.22;;;9.75;81.00
76074;BME280;64776;42.636;24.358;2023-05-07T02:26:39;90376.75;;;9.30;80.49
76074;BME280;64776;42.636;24.358;2023-05-07T02:29:40;90380.34;;;9.27;81.62
76074;BME280;64776;42.636;24.358;2023-05-07T02:32:41;90391.53;;;8.93;82.31
76074;BME280;64776;42.636;24.358;2023-05-07T02:35:42;90380.06;;;8.63;83.30
76074;BME280;64776;42.636;24.358;2023-05-07T02:38:45;90389.31;;;8.91;81.87
76074;BME280;64776;42.636;24.358;2023-05-07T02:41:45;90383.03;;;9.03;82.12
76074;BME280;64776;42.636;24.358;2023-05-07T02:44:46;90385.38;;;8.87;80.74
76074;BME280;64776;42.636;24.358;2023-05-07T02:47:47;90378.72;;;8.35;82.34
76074;BME280;64776;42.636;24.358;2023-05-07T02:50:48;90380.69;;;7.84;83.97
76074;BME280;64776;42.636;24.358;2023-05-07T02:53:50;90381.91;;;8.15;83.45
76074;BME280;64776;42.636;24.358;2023-05-07T02:56:51;90377.38;;;8.40;82.94
76074;BME280;64776;42.636;24.358;2023-05-07T02:59:51;90372.34;;;8.42;83.07
76074;BME280;64776;42.636;24.358;2023-05-07T03:02:52;90376.72;;;8.54;81.65
76074;BME280;64776;42.636;24.358;2023-05-07T03:05:53;90375.56;;;8.46;82.96
76074;BME280;64776;42.636;24.358;2023-05-07T03:08:55;90373.38;;;8.11;83.53
76074;BME280;64776;42.636;24.358;2023-05-07T03:11:56;90375.09;;;7.82;85.47
76074;BME280;64776;42.636;24.358;2023-05-07T03:14:57;90374.25;;;8.08;84.66
76074;BME280;64776;42.636;24.358;2023-05-07T03:17:58;90371.22;;;8.24;83.92
76074;BME280;64776;42.636;24.358;2023-05-07T03:20:59;90373.25;;;8.39;83.49
76074;BME280;64776;42.636;24.358;2023-05-07T03:24:01;90366.97;;;8.27;83.63
76074;BME280;64776;42.636;24.358;2023-05-07T03:27:02;90373.75;;;7.86;83.93
76074;BME280;64776;42.636;24.358;2023-05-07T03:30:05;90384.59;;;7.65;85.14
76074;BME280;64776;42.636;24.358;2023-05-07T03:33:06;90376.16;;;7.75;84.75
76074;BME280;64776;42.636;24.358;2023-05-07T03:36:07;90380.09;;;7.89;84.11
76074;BME280;64776;42.636;24.358;2023-05-07T03:39:09;90386.38;;;8.09;83.37
76074;BME280;64776;42.636;24.358;2023-05-07T03:42:10;90376.91;;;8.08;83.24
76074;BME280;64776;42.636;24.358;2023-05-07T03:45:11;90379.34;;;7.88;83.34
76074;BME280;64776;42.636;24.358;2023-05-07T03:48:12;90378.81;;;7.75;84.04
76074;BME280;64776;42.636;24.358;2023-05-07T03:51:12;90386.75;;;7.84;84.16
76074;BME280;64776;42.636;24.358;2023-05-07T03:54:15;90373.94;;;7.83;84.25
76074;BME280;64776;42.636;24.358;2023-05-07T03:57:15;90378.22;;;7.71;83.86
76074;BME280;64776;42.636;24.358;2023-05-07T04:00:22;90376.88;;;7.76;83.62
76074;BME280;64776;42.636;24.358;2023-05-07T04:03:23;90385.16;;;7.78;83.53
76074;BME280;64776;42.636;24.358;2023-05-07T04:06:24;90390.00;;;7.79;83.30
76074;BME280;64776;42.636;24.358;2023-05-07T04:09:26;90390.63;;;7.74;83.45
76074;BME280;64776;42.636;24.358;2023-05-07T04:12:27;90388.84;;;7.80;83.74
76074;BME280;64776;42.636;24.358;2023-05-07T04:15:28;90396.75;;;7.89;83.59
76074;BME280;64776;42.636;24.358;2023-05-07T04:18:28;90392.56;;;8.06;83.13
76074;BME280;64776;42.636;24.358;2023-05-07T04:21:30;90385.06;;;8.05;83.39
76074;BME280;64776;42.636;24.358;2023-05-07T04:24:32;90391.81;;;8.06;83.34
76074;BME280;64776;42.636;24.358;2023-05-07T04:27:33;90394.53;;;7.97;83.82
76074;BME280;64776;42.636;24.358;2023-05-07T04:30:34;90393.78;;;7.96;83.92
76074;BME280;64776;42.636;24.358;2023-05-07T04:33:35;90392.44;;;8.01;84.50
76074;BME280;64776;42.636;24.358;2023-05-07T04:36:35;90391.72;;;7.91;86.10
76074;BME280;64776;42.636;24.358;2023-05-07T04:39:37;90392.38;;;7.77;86.18
76074;BME280;64776;42.636;24.358;2023-05-07T04:42:38;90394.25;;;7.86;86.59
76074;BME280;64776;42.636;24.358;2023-05-07T04:45:39;90398.47;;;8.10;86.55
76074;BME280;64776;42.636;24.358;2023-05-07T04:48:40;90402.84;;;8.32;86.06
76074;BME280;64776;42.636;24.358;2023-05-07T04:51:40;90399.03;;;8.47;85.67
76074;BME280;64776;42.636;24.358;2023-05-07T04:54:43;90405.75;;;8.66;85.41
76074;BME280;64776;42.636;24.358;2023-05-07T04:57:43;90396.84;;;8.93;84.45
76074;BME280;64776;42.636;24.358;2023-05-07T05:00:44;90406.22;;;9.03;84.58
76074;BME280;64776;42.636;24.358;2023-05-07T05:03:45;90402.59;;;9.15;83.97
76074;BME280;64776;42.636;24.358;2023-05-07T05:06:46;90391.69;;;9.28;84.39
76074;BME280;64776;42.636;24.358;2023-05-07T05:09:48;90388.50;;;9.38;84.61
76074;BME280;64776;42.636;24.358;2023-05-07T05:12:49;90394.31;;;9.51;83.53
76074;BME280;64776;42.636;24.358;2023-05-07T05:15:49;90387.25;;;9.63;83.35
76074;BME280;64776;42.636;24.358;2023-05-07T05:18:56;90389.09;;;9.71;82.74
76074;BME280;64776;42.636;24.358;2023-05-07T05:21:57;90379.72;;;9.91;83.35
76074;BME280;64776;42.636;24.358;2023-05-07T05:24:59;90379.44;;;10.18;82.85
76074;BME280;64776;42.636;24.358;2023-05-07T05:28:00;90375.47;;;9.99;82.81
76074;BME280;64776;42.636;24.358;2023-05-07T05:31:01;90372.88;;;10.04;82.06
76074;BME280;64776;42.636;24.358;2023-05-07T05:34:02;90378.13;;;10.28;82.34
76074;BME280;64776;42.636;24.358;2023-05-07T05:37:03;90372.75;;;10.42;80.98
76074;BME280;64776;42.636;24.358;2023-05-07T05:40:06;90374.19;;;10.58;80.86
76074;BME280;64776;42.636;24.358;2023-05-07T05:43:07;90372.25;;;10.79;79.13
76074;BME280;64776;42.636;24.358;2023-05-07T05:46:08;90379.69;;;10.89;78.91
76074;BME280;64776;42.636;24.358;2023-05-07T05:49:08;90366.25;;;11.04;79.17
76074;BME280;64776;42.636;24.358;2023-05-07T05:52:11;90383.75;;;11.25;78.39
76074;BME280;64776;42.636;24.358;2023-05-07T05:55:14;90389.31;;;11.47;77.17
76074;BME280;64776;42.636;24.358;2023-05-07T05:58:14;90384.16;;;11.64;77.15
76074;BME280;64776;42.636;24.358;2023-05-07T06:01:15;90391.22;;;11.87;76.07
76074;BME280;64776;42.636;24.358;2023-05-07T06:04:17;90384.50;;;11.97;74.81
76074;BME280;64776;42.636;24.358;2023-05-07T06:07:18;90391.66;;;12.11;74.32
76074;BME280;64776;42.636;24.358;2023-05-07T06:10:20;90383.97;;;12.24;74.05
76074;BME280;64776;42.636;24.358;2023-05-07T06:13:22;90382.66;;;12.45;70.89
76074;BME280;64776;42.636;24.358;2023-05-07T06:16:24;90383.53;;;12.68;71.50
76074;BME280;64776;42.636;24.358;2023-05-07T06:19:25;90386.03;;;12.77;70.38
76074;BME280;64776;42.636;24.358;2023-05-07T06:22:25;90386.63;;;12.97;69.20
76074;BME280;64776;42.636;24.358;2023-05-07T06:25:28;90385.53;;;13.21;70.18
76074;BME280;64776;42.636;24.358;2023-05-07T06:28:28;90385.38;;;13.52;68.35
76074;BME280;64776;42.636;24.358;2023-05-07T06:31:30;90378.88;;;13.75;67.16
76074;BME280;64776;42.636;24.358;2023-05-07T06:34:31;90374.03;;;13.90;66.75
76074;BME280;64776;42.636;24.358;2023-05-07T06:37:31;90382.81;;;13.96;65.50
76074;BME280;64776;42.636;24.358;2023-05-07T06:40:34;90378.19;;;14.08;59.83
76074;BME280;64776;42.636;24.358;2023-05-07T06:43:35;90377.50;;;14.29;56.62
76074;BME280;64776;42.636;24.358;2023-05-07T06:46:36;90382.59;;;14.55;58.59
76074;BME280;64776;42.636;24.358;2023-05-07T06:49:37;90372.84;;;14.63;57.08
76074;BME280;64776;42.636;24.358;2023-05-07T06:52:37;90373.56;;;14.75;55.29
76074;BME280;64776;42.636;24.358;2023-05-07T06:55:40;90377.91;;;14.94;58.19
76074;BME280;64776;42.636;24.358;2023-05-07T06:58:40;90376.16;;;15.13;55.42
76074;BME280;64776;42.636;24.358;2023-05-07T07:01:41;90379.84;;;15.10;54.39
76074;BME280;64776;42.636;24.358;2023-05-07T07:04:43;90380.06;;;15.07;52.89
76074;BME280;64776;42.636;24.358;2023-05-07T07:07:44;90380.75;;;15.24;52.78
76074;BME280;64776;42.636;24.358;2023-05-07T07:10:46;90381.19;;;15.39;52.65
76074;BME280;64776;42.636;24.358;2023-05-07T07:13:47;90389.00;;;15.48;52.59
76074;BME280;64776;42.636;24.358;2023-05-07T07:16:48;90388.69;;;15.63;53.91
76074;BME280;64776;42.636;24.358;2023-05-07T07:19:48;90380.03;;;15.86;50.86
76074;BME280;64776;42.636;24.358;2023-05-07T07:22:49;90388.75;;;15.98;49.89
76074;BME280;64776;42.636;24.358;2023-05-07T07:25:51;90384.06;;;16.04;48.52
76074;BME280;64776;42.636;24.358;2023-05-07T07:28:52;90383.31;;;16.03;49.83
76074;BME280;64776;42.636;24.358;2023-05-07T07:31:53;90386.25;;;16.05;49.76
76074;BME280;64776;42.636;24.358;2023-05-07T07:34:54;90388.94;;;16.11;49.06
76074;BME280;64776;42.636;24.358;2023-05-07T07:37:54;90381.00;;;16.24;49.62
76074;BME280;64776;42.636;24.358;2023-05-07T07:40:57;90387.50;;;16.40;48.59
76074;BME280;64776;42.636;24.358;2023-05-07T07:43:57;90387.25;;;16.02;49.60
76074;BME280;64776;42.636;24.358;2023-05-07T07:46:58;90394.97;;;15.82;49.22
76074;BME280;64776;42.636;24.358;2023-05-07T07:49:59;90388.63;;;15.79;50.46
76074;BME280;64776;42.636;24.358;2023-05-07T07:53:00;90389.53;;;15.87;49.65
76074;BME280;64776;42.636;24.358;2023-05-07T07:56:02;90396.88;;;15.87;47.24
76074;BME280;64776;42.636;24.358;2023-05-07T07:59:03;90395.34;;;16.02;53.95
76074;BME280;64776;42.636;24.358;2023-05-07T08:02:04;90400.44;;;16.11;54.47
76074;BME280;64776;42.636;24.358;2023-05-07T08:05:05;90389.13;;;16.54;54.93
76074;BME280;64776;42.636;24.358;2023-05-07T08:08:06;90400.22;;;16.74;53.75
76074;BME280;64776;42.636;24.358;2023-05-07T08:11:08;90395.88;;;16.95;53.63
76074;BME280;64776;42.636;24.358;2023-05-07T08:14:10;90397.44;;;17.09;52.15
76074;BME280;64776;42.636;24.358;2023-05-07T08:17:11;90406.72;;;17.38;53.43
76074;BME280;64776;42.636;24.358;2023-05-07T08:20:12;90403.25;;;17.43;53.94
76074;BME280;64776;42.636;24.358;2023-05-07T08:23:13;90401.59;;;17.59;53.54
76074;BME280;64776;42.636;24.358;2023-05-07T08:26:15;90398.94;;;17.77;50.98
76074;BME280;64776;42.636;24.358;2023-05-07T08:29:16;90397.84;;;18.05;51.27
76074;BME280;64776;42.636;24.358;2023-05-07T08:32:16;90406.50;;;18.35;54.37
76074;BME280;64776;42.636;24.358;2023-05-07T08:35:17;90409.72;;;18.52;52.34
76074;BME280;64776;42.636;24.358;2023-05-07T08:38:18;90407.19;;;18.73;51.84
76074;BME280;64776;42.636;24.358;2023-05-07T08:41:20;90400.78;;;18.57;54.46
76074;BME280;64776;42.636;24.358;2023-05-07T08:44:22;90392.69;;;18.57;51.83
76074;BME280;64776;42.636;24.358;2023-05-07T08:47:29;90402.16;;;18.32;53.50
76074;BME280;64776;42.636;24.358;2023-05-07T08:50:35;90399.94;;;18.12;53.88
76074;BME280;64776;42.636;24.358;2023-05-07T08:53:36;90396.16;;;18.02;54.71
76074;BME280;64776;42.636;24.358;2023-05-07T08:56:42;90402.72;;;17.69;54.05
76074;BME280;64776;42.636;24.358;2023-05-07T08:59:43;90405.38;;;17.26;55.32
76074;BME280;64776;42.636;24.358;2023-05-07T09:02:44;90401.69;;;17.53;55.58
76074;BME280;64776;42.636;24.358;2023-05-07T09:05:44;90398.06;;;17.69;54.31
76074;BME280;64776;42.636;24.358;2023-05-07T09:08:49;90397.63;;;17.84;53.33
76074;BME280;64776;42.636;24.358;2023-05-07T09:11:56;90396.75;;;17.76;53.61
76074;BME280;64776;42.636;24.358;2023-05-07T09:14:59;90401.88;;;17.31;55.42
76074;BME280;64776;42.636;24.358;2023-05-07T09:18:00;90401.22;;;17.01;57.67
76074;BME280;64776;42.636;24.358;2023-05-07T09:21:01;90411.28;;;16.71;59.80
76074;BME280;64776;42.636;24.358;2023-05-07T09:24:01;90411.75;;;16.75;59.87
76074;BME280;64776;42.636;24.358;2023-05-07T09:27:04;90408.91;;;16.62;60.52
76074;BME280;64776;42.636;24.358;2023-05-07T09:30:06;90415.44;;;17.01;60.78
76074;BME280;64776;42.636;24.358;2023-05-07T09:33:07;90416.16;;;17.26;60.05
76074;BME280;64776;42.636;24.358;2023-05-07T09:36:09;90412.16;;;17.08;58.99
76074;BME280;64776;42.636;24.358;2023-05-07T09:39:10;90420.97;;;16.85;58.50
76074;BME280;64776;42.636;24.358;2023-05-07T09:42:13;90412.66;;;16.83;59.82
76074;BME280;64776;42.636;24.358;2023-05-07T09:45:14;90401.97;;;16.72;60.40
76074;BME280;64776;42.636;24.358;2023-05-07T09:48:16;90401.84;;;16.59;60.56
76074;BME280;64776;42.636;24.358;2023-05-07T09:51:22;90402.31;;;16.57;60.91
76074;BME280;64776;42.636;24.358;2023-05-07T09:54:25;90409.91;;;16.59;60.75
76074;BME280;64776;42.636;24.358;2023-05-07T09:57:29;90403.22;;;16.65;62.07
76074;BME280;64776;42.636;24.358;2023-05-07T10:00:30;90402.31;;;16.87;61.16
76074;BME280;64776;42.636;24.358;2023-05-07T10:03:33;90409.00;;;16.80;61.52
76074;BME280;64776;42.636;24.358;2023-05-07T10:06:36;90411.59;;;16.91;61.32
76074;BME280;64776;42.636;24.358;2023-05-07T10:09:37;90400.00;;;16.72;60.98
76074;BME280;64776;42.636;24.358;2023-05-07T10:12:41;90394.47;;;16.89;60.75
76074;BME280;64776;42.636;24.358;2023-05-07T10:15:42;90397.75;;;17.06;60.58
76074;BME280;64776;42.636;24.358;2023-05-07T10:18:43;90388.78;;;17.17;60.17
76074;BME280;64776;42.636;24.358;2023-05-07T10:21:48;90397.00;;;17.05;59.20
76074;BME280;64776;42.636;24.358;2023-05-07T10:24:52;90387.88;;;16.84;60.20
76074;BME280;64776;42.636;24.358;2023-05-07T10:27:58;90389.50;;;16.69;60.43
76074;BME280;64776;42.636;24.358;2023-05-07T10:31:11;90391.19;;;16.72;60.63
76074;BME280;64776;42.636;24.358;2023-05-07T10:34:18;90393.97;;;16.61;60.05
76074;BME280;64776;42.636;24.358;2023-05-07T10:37:21;90393.06;;;16.47;60.93
76074;BME280;64776;42.636;24.358;2023-05-07T10:40:23;90391.88;;;16.43;61.88
76074;BME280;64776;42.636;24.358;2023-05-07T10:43:38;90386.59;;;16.26;61.43
76074;BME280;64776;42.636;24.358;2023-05-07T10:46:39;90384.19;;;16.22;61.98
76074;BME280;64776;42.636;24.358;2023-05-07T10:53:25;90390.25;;;16.34;61.75
76074;BME280;64776;42.636;24.358;2023-05-07T10:56:26;90387.97;;;16.44;61.63
76074;BME280;64776;42.636;24.358;2023-05-07T10:59:40;90386.81;;;16.69;61.57
76074;BME280;64776;42.636;24.358;2023-05-07T11:03:06;90385.69;;;16.83;60.22
76074;BME280;64776;42.636;24.358;2023-05-07T11:06:11;90379.34;;;17.04;60.28
76074;BME280;64776;42.636;24.358;2023-05-07T11:09:12;90376.59;;;17.34;58.91
76074;BME280;64776;42.636;24.358;2023-05-07T11:12:13;90372.38;;;17.63;59.08
76074;BME280;64776;42.636;24.358;2023-05-07T11:15:16;90368.16;;;17.67;58.05
76074;BME280;64776;42.636;24.358;2023-05-07T11:18:46;90377.75;;;17.63;57.09
76074;BME280;64776;42.636;24.358;2023-05-07T11:21:48;90367.34;;;17.48;57.58
76074;BME280;64776;42.636;24.358;2023-05-07T11:24:48;90371.44;;;17.36;58.46
76074;BME280;64776;42.636;24.358;2023-05-07T11:27:49;90373.22;;;17.52;56.06
76074;BME280;64776;42.636;24.358;2023-05-07T11:30:52;90382.41;;;17.62;57.29
76074;BME280;64776;42.636;24.358;2023-05-07T11:33:54;90384.25;;;18.10;55.15
76074;BME280;64776;42.636;24.358;2023-05-07T11:36:55;90374.28;;;19.00;53.21
76074;BME280;64776;42.636;24.358;2023-05-07T11:40:02;90374.56;;;19.55;54.84
76074;BME280;64776;42.636;24.358;2023-05-07T11:43:10;90369.94;;;19.89;52.46
76074;BME280;64776;42.636;24.358;2023-05-07T11:46:12;90374.91;;;20.11;51.14
76074;BME280;64776;42.636;24.358;2023-05-07T11:49:17;90370.47;;;19.74;51.64
76074;BME280;64776;42.636;24.358;2023-05-07T11:52:19;90378.69;;;19.29;51.92
76074;BME280;64776;42.636;24.358;2023-05-07T11:55:20;90361.41;;;18.48;53.38
76074;BME280;64776;42.636;24.358;2023-05-07T11:58:22;90381.69;;;18.18;54.11
76074;BME280;64776;42.636;24.358;2023-05-07T12:01:24;90378.97;;;17.43;56.66
76074;BME280;64776;42.636;24.358;2023-05-07T12:04:25;90369.84;;;17.46;56.63
76074;BME280;64776;42.636;24.358;2023-05-07T12:07:26;90377.75;;;17.20;57.33
76074;BME280;64776;42.636;24.358;2023-05-07T12:10:26;90373.00;;;17.26;57.05
76074;BME280;64776;42.636;24.358;2023-05-07T12:13:27;90369.19;;;17.40;56.55
76074;BME280;64776;42.636;24.358;2023-05-07T12:16:30;90380.59;;;17.28;56.87
76074;BME280;64776;42.636;24.358;2023-05-07T12:19:31;90381.34;;;17.04;56.80
76074;BME280;64776;42.636;24.358;2023-05-07T12:22:34;90380.31;;;17.07;57.71
76074;BME280;64776;42.636;24.358;2023-05-07T12:25:35;90381.66;;;16.95;56.87
76074;BME280;64776;42.636;24.358;2023-05-07T12:28:37;90377.75;;;16.96;58.41
76074;BME280;64776;42.636;24.358;2023-05-07T12:31:41;90376.34;;;17.14;57.97
76074;BME280;64776;42.636;24.358;2023-05-07T12:34:43;90376.41;;;17.08;57.84
76074;BME280;64776;42.636;24.358;2023-05-07T12:37:45;90366.16;;;17.25;58.04
76074;BME280;64776;42.636;24.358;2023-05-07T12:40:55;90361.03;;;17.22;57.06
76074;BME280;64776;42.636;24.358;2023-05-07T12:43:56;90361.19;;;17.29;57.06
76074;BME280;64776;42.636;24.358;2023-05-07T12:47:01;90358.28;;;17.51;56.74
76074;BME280;64776;42.636;24.358;2023-05-07T12:50:04;90359.88;;;17.78;55.81
76074;BME280;64776;42.636;24.358;2023-05-07T12:53:06;90368.16;;;18.05;55.99
76074;BME280;64776;42.636;24.358;2023-05-07T12:56:07;90351.19;;;18.23;55.67
76074;BME280;64776;42.636;24.358;2023-05-07T12:59:08;90357.78;;;18.09;54.49
76074;BME280;64776;42.636;24.358;2023-05-07T13:02:10;90361.16;;;17.96;55.57
76074;BME280;64776;42.636;24.358;2023-05-07T13:05:11;90354.22;;;18.01;54.63
76074;BME280;64776;42.636;24.358;2023-05-07T13:08:12;90349.19;;;17.73;56.11
76074;BME280;64776;42.636;24.358;2023-05-07T13:11:13;90351.50;;;17.63;56.77
76074;BME280;64776;42.636;24.358;2023-05-07T13:14:14;90345.69;;;17.59;56.01
76074;BME280;64776;42.636;24.358;2023-05-07T13:17:16;90351.72;;;17.23;56.36
76074;BME280;64776;42.636;24.358;2023-05-07T13:20:16;90347.72;;;17.29;56.72
76074;BME280;64776;42.636;24.358;2023-05-07T13:23:17;90350.69;;;17.26;56.75
76074;BME280;64776;42.636;24.358;2023-05-07T13:26:18;90340.50;;;17.37;55.86
76074;BME280;64776;42.636;24.358;2023-05-07T13:29:19;90333.09;;;17.43;56.20
76074;BME280;64776;42.636;24.358;2023-05-07T13:32:21;90338.81;;;17.58;55.14
76074;BME280;64776;42.636;24.358;2023-05-07T13:35:22;90339.25;;;17.62;55.41
76074;BME280;64776;42.636;24.358;2023-05-07T13:38:23;90325.13;;;18.25;54.26
76074;BME280;64776;42.636;24.358;2023-05-07T13:41:23;90331.16;;;18.31;53.61
76074;BME280;64776;42.636;24.358;2023-05-07T13:44:24;90324.56;;;18.77;52.44
76074;BME280;64776;42.636;24.358;2023-05-07T13:47:26;90328.53;;;18.89;52.76
76074;BME280;64776;42.636;24.358;2023-05-07T13:50:27;90320.38;;;18.76;52.48
76074;BME280;64776;42.636;24.358;2023-05-07T13:53:28;90319.19;;;18.45;53.48
76074;BME280;64776;42.636;24.358;2023-05-07T13:56:29;90336.00;;;18.20;53.87
76074;BME280;64776;42.636;24.358;2023-05-07T13:59:30;90339.66;;;18.04;54.36
76074;BME280;64776;42.636;24.358;2023-05-07T14:02:32;90340.28;;;17.97;54.22
76074;BME280;64776;42.636;24.358;2023-05-07T14:05:33;90341.41;;;18.01;54.29
76074;BME280;64776;42.636;24.358;2023-05-07T14:08:33;90341.22;;;17.80;54.64
76074;BME280;64776;42.636;24.358;2023-05-07T14:11:35;90345.97;;;17.74;54.79
76074;BME280;64776;42.636;24.358;2023-05-07T14:14:36;90339.56;;;17.77;54.52
76074;BME280;64776;42.636;24.358;2023-05-07T14:17:39;90340.56;;;17.74;54.61
76074;BME280;64776;42.636;24.358;2023-05-07T14:20:40;90337.63;;;17.72;55.87
76074;BME280;64776;42.636;24.358;2023-05-07T14:23:41;90336.28;;;17.66;54.79
76074;BME280;64776;42.636;24.358;2023-05-07T14:26:41;90340.50;;;17.61;55.07
76074;BME280;64776;42.636;24.358;2023-05-07T14:29:42;90344.16;;;17.64;54.90
76074;BME280;64776;42.636;24.358;2023-05-07T14:32:44;90337.81;;;17.61;54.82
76074;BME280;64776;42.636;24.358;2023-05-07T14:35:45;90344.38;;;17.66;54.89
76074;BME280;64776;42.636;24.358;2023-05-07T14:38:46;90338.81;;;17.77;55.36
76074;BME280;64776;42.636;24.358;2023-05-07T14:41:47;90340.72;;;17.82;54.47
76074;BME280;64776;42.636;24.358;2023-05-07T14:44:47;90340.00;;;17.81;54.98
76074;BME280;64776;42.636;24.358;2023-05-07T14:47:50;90334.91;;;18.10;55.21
76074;BME280;64776;42.636;24.358;2023-05-07T14:50:50;90338.47;;;18.18;55.10
76074;BME280;64776;42.636;24.358;2023-05-07T14:53:51;90330.16;;;18.16;53.04
76074;BME280;64776;42.636;24.358;2023-05-07T14:56:52;90333.34;;;18.33;52.97
76074;BME280;64776;42.636;24.358;2023-05-07T14:59:53;90339.41;;;18.39;53.20
76074;BME280;64776;42.636;24.358;2023-05-07T15:02:56;90328.53;;;18.89;52.26
76074;BME280;64776;42.636;24.358;2023-05-07T15:06:05;90326.88;;;19.52;50.18
76074;BME280;64776;42.636;24.358;2023-05-07T15:09:05;90318.13;;;19.59;48.83
76074;BME280;64776;42.636;24.358;2023-05-07T15:12:06;90310.00;;;19.72;48.79
76074;BME280;64776;42.636;24.358;2023-05-07T15:15:08;90303.13;;;19.31;50.02
76074;BME280;64776;42.636;24.358;2023-05-07T15:18:11;90308.16;;;19.54;49.73
76074;BME280;64776;42.636;24.358;2023-05-07T15:21:12;90301.28;;;19.39;50.17
76074;BME280;64776;42.636;24.358;2023-05-07T15:24:12;90304.59;;;19.06;51.40
76074;BME280;64776;42.636;24.358;2023-05-07T15:27:13;90307.72;;;18.71;52.05
76074;BME280;64776;42.636;24.358;2023-05-07T15:30:14;90312.28;;;18.76;52.96
76074;BME280;64776;42.636;24.358;2023-05-07T15:33:17;90310.06;;;18.61;52.53
76074;BME280;64776;42.636;24.358;2023-05-07T15:36:17;90309.09;;;18.46;52.18
76074;BME280;64776;42.636;24.358;2023-05-07T15:39:18;90305.22;;;18.41;52.44
76074;BME280;64776;42.636;24.358;2023-05-07T15:42:20;90297.59;;;18.27;53.50
76074;BME280;64776;42.636;24.358;2023-05-07T15:45:21;90311.41;;;18.23;53.58
76074;BME280;64776;42.636;24.358;2023-05-07T15:48:23;90299.19;;;18.35;53.01
76074;BME280;64776;42.636;24.358;2023-05-07T15:51:24;90309.41;;;18.24;53.29
76074;BME280;64776;42.636;24.358;2023-05-07T15:54:28;90316.41;;;18.01;54.44
76074;BME280;64776;42.636;24.358;2023-05-07T15:57:29;90311.53;;;17.80;54.47